EDT,Max TemperatureF,Mean TemperatureF,Min TemperatureF,Max Dew PointF,MeanDew PointF,Min DewpointF,Max Humidity, Mean Humidity, Min Humidity, Max Sea Level PressureIn, Mean Sea Level PressureIn, Min Sea Level PressureIn, Max VisibilityMiles, Mean VisibilityMiles, Min VisibilityMiles, Max Wind SpeedMPH, Mean Wind SpeedMPH, Max Gust SpeedMPH,PrecipitationIn, CloudCover, Events, WindDirDegrees
2010-10-1,78,69,60,65,58,53,87,70,53,29.88,29.74,29.60,10,10,10,21,8,28,0.00,5,,347
2010-10-2,76,66,55,56,52,49,86,65,43,29.97,29.91,29.87,10,10,10,14,7,20,0.00,1,,35
2010-10-3,73,64,55,55,54,53,93,73,53,30.01,29.92,29.86,10,10,10,16,7,23,0.00,4,,16
2010-10-4,72,62,52,54,51,50,93,71,49,30.13,30.07,30.01,10,10,10,15,6,21,0.00,3,,2
2010-10-5,72,61,49,52,47,41,93,65,37,30.22,30.15,30.10,10,10,9,14,5,17,0.00,2,,354
2010-10-6,72,58,44,49,43,38,92,62,31,30.14,30.05,29.96,10,10,10,21,6,26,0.00,0,,288
2010-10-7,82,64,46,55,48,44,86,59,32,30.04,29.98,29.90,10,10,10,2,4,2,0.00,0,,270
2010-10-8,80,65,49,54,48,44,93,62,30,30.12,30.05,29.98,10,10,10,9,3,18,0.00,0,,33
2010-10-9,84,66,48,57,51,47,100,66,31,30.06,30.01,29.96,10,9,5,10,2,22,0.00,0,,273
2010-10-10,86,68,49,59,53,48,100,64,27,30.02,29.97,29.91,10,9,4,8,1,13,0.00,0,,265
2010-10-11,86,72,57,62,58,54,93,64,34,29.98,29.93,29.88,10,9,5,0,0,0,0.00,0,,221
2010-10-12,88,74,60,63,59,52,97,64,30,29.92,29.89,29.85,10,8,2,13,4,20,0.00,0,,240
2010-10-13,83,72,60,62,58,54,90,64,37,29.96,29.92,29.89,10,9,4,8,2,,0.00,0,,330
2010-10-14,76,63,49,64,59,43,100,77,53,29.91,29.86,29.80,10,5,0,14,6,21,0.00,3,Fog,299
2010-10-15,75,59,42,44,40,35,96,61,25,30.00,29.89,29.75,10,10,9,21,7,28,0.00,0,,286
2010-10-16,72,59,45,44,39,32,86,56,26,30.14,30.08,30.00,10,10,10,12,5,16,0.00,0,,324
2010-10-17,79,60,40,50,44,39,93,59,25,30.16,30.08,30.01,10,9,6,10,2,14,0.00,0,,235
2010-10-18,81,64,46,53,47,40,100,62,23,30.06,29.98,29.91,10,9,4,14,5,46,0.00,0,,220
2010-10-19,82,69,55,56,53,49,86,60,33,29.94,29.89,29.84,10,10,9,15,5,20,0.00,0,,225
2010-10-20,72,62,51,57,54,50,96,78,59,29.91,29.87,29.84,10,6,2,17,3,22,0.00,1,,330
2010-10-21,80,65,50,56,49,40,100,63,25,29.90,29.87,29.79,10,5,1,16,4,21,0.00,2,,259
2010-10-22,73,58,42,47,39,29,86,53,20,30.24,30.10,29.91,10,10,10,18,4,30,0.00,0,,13
2010-10-23,76,57,37,45,38,33,92,57,21,30.32,30.28,30.24,10,10,10,24,1,45,0.00,0,,140
2010-10-24,81,64,46,61,53,44,93,68,42,30.28,30.20,30.11,10,10,10,10,3,,0.00,1,,171
2010-10-25,85,74,63,67,63,60,100,72,44,30.11,30.00,29.91,10,9,2,31,6,38,0.09,4,Rain,170
2010-10-26,84,75,65,71,68,63,97,81,65,29.99,29.93,29.89,10,10,6,15,7,31,T,,,193
2010-10-27,88,82,75,72,71,69,87,71,55,30.06,30.01,29.95,10,10,10,18,10,30,0.02,2,,204
2010-10-28,79,72,64,72,70,55,93,77,61,30.07,30.01,29.92,10,8,1,13,6,17,0.37,6,Rain,227
2010-10-29,66,54,42,52,41,38,100,69,37,30.21,30.11,29.96,10,10,9,16,6,23,0.00,0,,356
2010-10-30,67,53,38,49,41,36,96,65,34,30.28,30.18,30.04,10,10,8,9,3,20,0.00,0,,206
2010-10-31,76,62,48,54,49,43,96,64,31,30.07,30.01,29.94,10,9,5,15,5,21,0.00,0,,248